Terminal Aerodrome Forecast
Issued by NWS Mt. Holly, NJ

Home | Current Version | Previous Version | Text Only | Print | Product List | Glossary On
Versions: 1 2 3 4 5 6 7 8 9 10 11 12 13 14 15 16 17
000
FTUS41 KPHI 281130
TAFABE
TAF
KABE 281130Z 2812/2912 VRB03KT P6SM SCT050
     FM281300 12006KT P6SM SCT050
     FM281700 15008KT P6SM BKN050
     FM282300 14008KT P6SM SCT015 BKN050
      TEMPO 2900/2902 BKN015 OVC050
     FM290200 11008KT 4SM -SHRA BR OVC010
     FM290600 09006KT 3SM -SHRA BR OVC004=

USA.gov is the U.S. government's official web portal to all federal, state and local government web resources and services.